Time;durP1;ratioP1;P1;durP2;ratioP2;P2;SDS_P1;SDS_P2;PMS_P1;PMS_P2;Temp;Humidity;BMP_temperature;BMP_pressure;BME280_temperature;BME280_humidity;BME280_pressure;Samples;Min_cycle;Max_cycle;Signal;HPM_P1;HPM_P2
2023/04/03 00:01:41;;;;;;;0.73;0.60;;;;;;;;;;5041496;28;20136;-64
2023/04/03 00:04:07;;;;;;;1.25;0.28;;;;;;;;;;5042733;28;20118;-65
2023/04/03 00:06:33;;;;;;;0.65;0.50;;;;;;;;;;5042948;28;20064;-65
2023/04/03 00:09:00;;;;;;;0.98;0.40;;;;;;;;;;5041594;28;20114;-65
2023/04/03 00:11:26;;;;;;;1.10;0.43;;;;;;;;;;5042891;28;20056;-65
2023/04/03 00:13:52;;;;;;;0.82;0.40;;;;;;;;;;5040330;28;20601;-64
2023/04/03 00:16:18;;;;;;;0.50;0.40;;;;;;;;;;5040312;28;20049;-65
2023/04/03 00:18:44;;;;;;;0.55;0.40;;;;;;;;;;5038598;28;20081;-64
2023/04/03 00:21:12;;;;;;;1.05;0.60;;;;;;;;;;5040544;28;20116;-64
2023/04/03 00:23:38;;;;;;;0.68;0.63;;;;;;;;;;5041635;28;20049;-65
2023/04/03 00:26:04;;;;;;;0.60;0.38;;;;;;;;;;5041691;28;20534;-65
2023/04/03 00:28:30;;;;;;;0.60;0.38;;;;;;;;;;5043046;28;20056;-65
2023/04/03 00:30:56;;;;;;;0.30;0.30;;;;;;;;;;5040785;28;20057;-64
2023/04/03 00:33:24;;;;;;;0.20;0.20;;;;;;;;;;5042446;28;20057;-65
2023/04/03 00:35:50;;;;;;;0.75;0.63;;;;;;;;;;5040228;28;20433;-65
2023/04/03 00:38:17;;;;;;;0.38;0.30;;;;;;;;;;5041688;28;20063;-65
2023/04/03 00:40:44;;;;;;;0.68;0.47;;;;;;;;;;5040558;28;20037;-64
2023/04/03 00:43:15;;;;;;;0.70;0.40;;;;;;;;;;5041769;28;20588;-65
2023/04/03 00:45:42;;;;;;;3.00;0.70;;;;;;;;;;5041422;28;20102;-65
2023/04/03 00:48:10;;;;;;;1.58;0.30;;;;;;;;;;5042082;28;20052;-65
2023/04/03 00:50:38;;;;;;;0.63;0.50;;;;;;;;;;5038616;28;20356;-64
2023/04/03 00:53:04;;;;;;;3.22;1.38;;;;;;;;;;5040092;28;20500;-65
2023/04/03 00:55:31;;;;;;;0.50;0.40;;;;;;;;;;5041298;28;20352;-65
2023/04/03 00:57:57;;;;;;;2.58;0.45;;;;;;;;;;5040920;28;20045;-64
2023/04/03 01:00:24;;;;;;;0.57;0.43;;;;;;;;;;5042262;28;20411;-65
2023/04/03 01:02:51;;;;;;;1.08;0.40;;;;;;;;;;5040087;28;20049;-65
2023/04/03 01:05:18;;;;;;;0.77;0.50;;;;;;;;;;5041120;28;20061;-65
2023/04/03 01:07:44;;;;;;;1.05;0.43;;;;;;;;;;5041590;28;20037;-65
2023/04/03 01:10:13;;;;;;;0.52;0.30;;;;;;;;;;5041911;28;20045;-65
2023/04/03 01:12:41;;;;;;;0.77;0.47;;;;;;;;;;5037086;28;20075;-65
2023/04/03 01:15:09;;;;;;;0.52;0.25;;;;;;;;;;5041786;28;20052;-64
2023/04/03 01:17:35;;;;;;;3.72;1.00;;;;;;;;;;5041748;28;20072;-64
2023/04/03 01:20:14;;;;;;;1.33;0.50;;;;;;;;;;5042477;28;20468;-64
2023/04/03 01:22:52;;;;;;;1.60;0.52;;;;;;;;;;5040142;28;20051;-64
2023/04/03 01:25:18;;;;;;;0.43;0.20;;;;;;;;;;5041620;28;20052;-65
2023/04/03 01:27:45;;;;;;;0.68;0.35;;;;;;;;;;5040767;28;20040;-65
2023/04/03 01:30:11;;;;;;;1.10;0.30;;;;;;;;;;5039963;28;20049;-65
2023/04/03 01:32:37;;;;;;;0.40;0.40;;;;;;;;;;5041241;28;20132;-65
2023/04/03 01:35:03;;;;;;;0.75;0.38;;;;;;;;;;5045238;28;20120;-64
2023/04/03 01:37:29;;;;;;;1.08;0.50;;;;;;;;;;5044389;28;20055;-65
2023/04/03 01:39:55;;;;;;;1.92;0.75;;;;;;;;;;5044153;28;20041;-65
2023/04/03 01:42:21;;;;;;;1.10;0.50;;;;;;;;;;5043860;28;20522;-65
2023/04/03 01:44:47;;;;;;;4.63;0.63;;;;;;;;;;5045093;28;20119;-64
2023/04/03 01:47:13;;;;;;;0.60;0.50;;;;;;;;;;5041950;28;20068;-64
2023/04/03 01:49:39;;;;;;;0.73;0.40;;;;;;;;;;5045625;28;20053;-64
2023/04/03 01:52:05;;;;;;;0.73;0.50;;;;;;;;;;5044529;28;20049;-64
2023/04/03 01:54:31;;;;;;;1.25;0.52;;;;;;;;;;5045250;28;20102;-64
2023/04/03 01:56:57;;;;;;;0.75;0.63;;;;;;;;;;5042666;28;20671;-65
2023/04/03 01:59:23;;;;;;;1.23;0.50;;;;;;;;;;5044616;28;20060;-64
2023/04/03 02:01:49;;;;;;;1.85;0.60;;;;;;;;;;5042398;28;20481;-64
2023/04/03 02:04:15;;;;;;;0.32;0.25;;;;;;;;;;5043977;28;20136;-64
2023/04/03 02:06:41;;;;;;;2.15;0.60;;;;;;;;;;5045002;28;20115;-64
2023/04/03 02:09:07;;;;;;;0.65;0.35;;;;;;;;;;5042385;28;20045;-65
2023/04/03 02:11:33;;;;;;;1.75;0.50;;;;;;;;;;5044815;28;20403;-64
2023/04/03 02:13:59;;;;;;;2.08;0.40;;;;;;;;;;5042137;28;20514;-65
2023/04/03 02:16:25;;;;;;;0.45;0.30;;;;;;;;;;5042891;28;20041;-65
2023/04/03 02:18:51;;;;;;;2.35;0.50;;;;;;;;;;5042485;28;20135;-64
2023/04/03 02:21:17;;;;;;;1.95;0.40;;;;;;;;;;5044633;28;20455;-64
2023/04/03 02:23:43;;;;;;;1.30;0.52;;;;;;;;;;5044747;28;20040;-64
2023/04/03 02:26:11;;;;;;;0.65;0.50;;;;;;;;;;5044125;28;20044;-64
2023/04/03 02:28:37;;;;;;;0.85;0.40;;;;;;;;;;5045090;28;20053;-64
2023/04/03 02:31:04;;;;;;;1.30;0.80;;;;;;;;;;5043083;28;20052;-64
2023/04/03 02:33:30;;;;;;;0.52;0.32;;;;;;;;;;5044356;28;20390;-64
2023/04/03 02:35:56;;;;;;;0.50;0.30;;;;;;;;;;5041468;28;20139;-64
2023/04/03 02:38:23;;;;;;;1.67;0.50;;;;;;;;;;5045137;28;20037;-64
2023/04/03 02:40:49;;;;;;;0.55;0.40;;;;;;;;;;5044275;28;20494;-64
2023/04/03 02:43:15;;;;;;;1.88;0.40;;;;;;;;;;5042467;28;20630;-64
2023/04/03 02:45:41;;;;;;;0.93;0.35;;;;;;;;;;5042272;28;20510;-64
2023/04/03 02:48:07;;;;;;;1.33;0.70;;;;;;;;;;5041660;28;20049;-65
2023/04/03 02:50:33;;;;;;;0.55;0.40;;;;;;;;;;5042826;28;20037;-64
2023/04/03 02:52:59;;;;;;;1.20;0.70;;;;;;;;;;5042234;28;20052;-65
2023/04/03 02:55:25;;;;;;;1.75;0.32;;;;;;;;;;5044239;28;20398;-64
2023/04/03 02:57:51;;;;;;;0.93;0.43;;;;;;;;;;5042684;28;20444;-64
2023/04/03 03:00:18;;;;;;;0.93;0.50;;;;;;;;;;5042644;28;20041;-65
2023/04/03 03:02:44;;;;;;;2.05;0.68;;;;;;;;;;5042559;28;20040;-64
2023/04/03 03:05:10;;;;;;;1.88;0.45;;;;;;;;;;5041501;28;20231;-65
2023/04/03 03:07:36;;;;;;;1.27;0.50;;;;;;;;;;5044037;28;20044;-64
2023/04/03 03:10:02;;;;;;;0.98;0.52;;;;;;;;;;5042381;28;20041;-65
2023/04/03 03:12:28;;;;;;;2.25;0.50;;;;;;;;;;5041629;28;20597;-65
2023/04/03 03:14:54;;;;;;;0.63;0.32;;;;;;;;;;5043319;28;20126;-65
2023/04/03 03:17:20;;;;;;;1.20;0.45;;;;;;;;;;5041355;28;20087;-65
2023/04/03 03:19:46;;;;;;;0.73;0.25;;;;;;;;;;5041622;28;20117;-64
2023/04/03 03:22:12;;;;;;;0.73;0.47;;;;;;;;;;5042997;28;20483;-65
2023/04/03 03:24:38;;;;;;;0.63;0.45;;;;;;;;;;5042687;28;20052;-64
2023/04/03 03:27:04;;;;;;;0.35;0.17;;;;;;;;;;5042023;28;20041;-65
2023/04/03 03:29:30;;;;;;;0.90;0.50;;;;;;;;;;5043810;28;20131;-64
2023/04/03 03:31:56;;;;;;;0.90;0.35;;;;;;;;;;5041127;28;20087;-65
2023/04/03 03:34:22;;;;;;;0.85;0.40;;;;;;;;;;5042589;28;20495;-64
2023/04/03 03:36:48;;;;;;;1.95;0.60;;;;;;;;;;5041594;28;20395;-64
2023/04/03 03:39:14;;;;;;;0.68;0.40;;;;;;;;;;5041187;28;20049;-64
2023/04/03 03:41:40;;;;;;;1.70;0.45;;;;;;;;;;5042364;28;20048;-64
2023/04/03 03:44:06;;;;;;;0.40;0.40;;;;;;;;;;5040984;28;20044;-64
2023/04/03 03:46:32;;;;;;;1.20;0.45;;;;;;;;;;5042902;28;20553;-64
2023/04/03 03:48:58;;;;;;;2.78;0.60;;;;;;;;;;5039214;28;20080;-64
2023/04/03 03:51:24;;;;;;;0.40;0.20;;;;;;;;;;5041607;28;20514;-65
2023/04/03 03:53:51;;;;;;;0.60;0.60;;;;;;;;;;5040043;28;20053;-64
2023/04/03 03:56:17;;;;;;;2.90;0.77;;;;;;;;;;5041091;28;20546;-64
2023/04/03 03:58:43;;;;;;;2.17;0.85;;;;;;;;;;5042948;28;20562;-65
2023/04/03 04:01:09;;;;;;;2.30;0.82;;;;;;;;;;5041661;28;21038;-64
2023/04/03 04:03:35;;;;;;;1.38;0.70;;;;;;;;;;5041990;28;20532;-65
2023/04/03 04:06:01;;;;;;;1.63;0.75;;;;;;;;;;5041524;28;20432;-64
2023/04/03 04:08:27;;;;;;;0.60;0.50;;;;;;;;;;5042765;28;20087;-64
2023/04/03 04:10:53;;;;;;;0.50;0.43;;;;;;;;;;5041453;28;20109;-64
2023/04/03 04:13:19;;;;;;;0.70;0.50;;;;;;;;;;5041563;28;20068;-65
2023/04/03 04:15:45;;;;;;;1.40;0.90;;;;;;;;;;5039665;28;20041;-64
2023/04/03 04:18:11;;;;;;;2.33;0.98;;;;;;;;;;5043542;28;20037;-64
2023/04/03 04:20:37;;;;;;;1.40;0.85;;;;;;;;;;5044489;28;20516;-64
2023/04/03 04:23:03;;;;;;;2.53;1.00;;;;;;;;;;5041533;28;20041;-64
2023/04/03 04:25:29;;;;;;;4.30;1.35;;;;;;;;;;5042762;28;20044;-64
2023/04/03 04:27:55;;;;;;;4.22;1.00;;;;;;;;;;5041954;28;20640;-64
2023/04/03 04:30:21;;;;;;;5.50;1.13;;;;;;;;;;5043116;28;20049;-65
2023/04/03 04:32:47;;;;;;;1.45;0.82;;;;;;;;;;5040567;28;20135;-64
2023/04/03 04:35:13;;;;;;;2.70;1.25;;;;;;;;;;5040421;28;20243;-64
2023/04/03 04:37:39;;;;;;;2.03;0.98;;;;;;;;;;5041075;28;20045;-64
2023/04/03 04:40:05;;;;;;;5.30;1.00;;;;;;;;;;5044286;28;20049;-64
2023/04/03 04:42:31;;;;;;;1.25;0.75;;;;;;;;;;5042972;28;20710;-64
2023/04/03 04:44:57;;;;;;;2.80;1.05;;;;;;;;;;5040313;28;20110;-64
2023/04/03 04:47:23;;;;;;;2.30;1.00;;;;;;;;;;5039166;28;20206;-64
2023/04/03 04:49:50;;;;;;;4.88;1.35;;;;;;;;;;5039863;28;20044;-64
2023/04/03 04:52:16;;;;;;;1.00;0.80;;;;;;;;;;5041161;28;20126;-64
2023/04/03 04:54:42;;;;;;;0.70;0.60;;;;;;;;;;5040840;28;20101;-64
2023/04/03 04:57:08;;;;;;;1.98;0.75;;;;;;;;;;5038873;28;20537;-65
2023/04/03 04:59:34;;;;;;;1.70;0.70;;;;;;;;;;5042512;28;20375;-64
2023/04/03 05:02:00;;;;;;;2.13;1.10;;;;;;;;;;5039764;28;20045;-64
2023/04/03 05:04:26;;;;;;;3.50;1.10;;;;;;;;;;5041002;28;20051;-64
2023/04/03 05:06:52;;;;;;;3.10;1.23;;;;;;;;;;5040924;28;20048;-64
2023/04/03 05:09:19;;;;;;;1.80;1.23;;;;;;;;;;5045339;28;20075;-64
2023/04/03 05:11:46;;;;;;;2.80;1.40;;;;;;;;;;5044473;28;20366;-64
2023/04/03 05:14:12;;;;;;;2.03;0.80;;;;;;;;;;5043213;28;20055;-64
2023/04/03 05:16:38;;;;;;;3.00;1.27;;;;;;;;;;5043847;28;20033;-65
2023/04/03 05:19:04;;;;;;;2.13;1.15;;;;;;;;;;5043967;28;20040;-65
2023/04/03 05:21:32;;;;;;;3.10;1.00;;;;;;;;;;5045599;28;20052;-64
2023/04/03 05:23:59;;;;;;;2.42;1.13;;;;;;;;;;5043595;28;20057;-64
2023/04/03 05:26:25;;;;;;;1.42;1.00;;;;;;;;;;5044686;28;20930;-64
2023/04/03 05:28:51;;;;;;;2.35;0.88;;;;;;;;;;5045182;28;20387;-64
2023/04/03 05:31:17;;;;;;;3.25;1.45;;;;;;;;;;5045105;28;20045;-64
2023/04/03 05:33:44;;;;;;;1.25;1.00;;;;;;;;;;5043536;28;20136;-64
2023/04/03 05:36:10;;;;;;;1.05;0.95;;;;;;;;;;5044653;28;20876;-64
2023/04/03 05:38:36;;;;;;;2.47;0.75;;;;;;;;;;5045327;28;20625;-64
2023/04/03 05:41:02;;;;;;;1.80;1.02;;;;;;;;;;5044094;28;20047;-64
2023/04/03 05:43:28;;;;;;;2.92;1.05;;;;;;;;;;5042967;28;20049;-64
2023/04/03 05:45:54;;;;;;;1.75;1.30;;;;;;;;;;5044647;28;20045;-64
2023/04/03 05:48:20;;;;;;;3.15;1.60;;;;;;;;;;5042891;28;20819;-64
2023/04/03 05:50:46;;;;;;;2.03;1.13;;;;;;;;;;5044650;28;20174;-65
2023/04/03 05:53:22;;;;;;;3.17;0.98;;;;;;;;;;5039275;28;20084;-66
2023/04/03 05:55:48;;;;;;;2.22;1.30;;;;;;;;;;5047319;28;20041;-66
2023/04/03 05:58:14;;;;;;;1.42;0.77;;;;;;;;;;5044646;28;20137;-66
2023/04/03 06:00:40;;;;;;;2.00;0.70;;;;;;;;;;5045581;28;20033;-65
2023/04/03 06:03:06;;;;;;;2.90;1.00;;;;;;;;;;5045069;28;20518;-66
2023/04/03 06:05:36;;;;;;;2.65;1.00;;;;;;;;;;5047945;28;20098;-66
2023/04/03 06:08:02;;;;;;;3.90;0.80;;;;;;;;;;5044243;28;20060;-66
2023/04/03 06:10:28;;;;;;;2.75;1.00;;;;;;;;;;5045030;28;20041;-66
2023/04/03 06:12:54;;;;;;;5.22;1.65;;;;;;;;;;5043920;28;20071;-66
2023/04/03 06:15:21;;;;;;;1.95;1.10;;;;;;;;;;5044974;28;20073;-66
2023/04/03 06:17:47;;;;;;;6.53;1.83;;;;;;;;;;5043879;28;20315;-66
2023/04/03 06:20:13;;;;;;;3.20;1.25;;;;;;;;;;5042423;28;20122;-66
2023/04/03 06:22:39;;;;;;;2.67;1.08;;;;;;;;;;5045437;28;20106;-66
2023/04/03 06:25:06;;;;;;;3.05;1.40;;;;;;;;;;5042718;28;20040;-66
2023/04/03 06:27:32;;;;;;;6.88;1.45;;;;;;;;;;5044285;28;20521;-66
2023/04/03 06:29:58;;;;;;;3.30;1.40;;;;;;;;;;5044058;28;20505;-66
2023/04/03 06:32:24;;;;;;;2.30;1.40;;;;;;;;;;5043499;28;20057;-66
2023/04/03 06:34:51;;;;;;;2.58;1.25;;;;;;;;;;5040339;28;20049;-66
2023/04/03 06:37:17;;;;;;;2.45;1.23;;;;;;;;;;5041725;28;20161;-65
2023/04/03 06:39:45;;;;;;;2.53;1.63;;;;;;;;;;5044438;28;20045;-65
2023/04/03 06:42:11;;;;;;;2.45;1.60;;;;;;;;;;5044048;28;20094;-65
2023/04/03 06:44:37;;;;;;;4.90;1.30;;;;;;;;;;5042287;28;20041;-65
2023/04/03 06:47:03;;;;;;;1.95;1.40;;;;;;;;;;5040774;28;20045;-65
2023/04/03 06:49:29;;;;;;;4.93;1.42;;;;;;;;;;5043878;28;20073;-65
2023/04/03 06:51:58;;;;;;;5.63;1.75;;;;;;;;;;5044323;28;20053;-65
2023/04/03 06:54:24;;;;;;;3.72;1.77;;;;;;;;;;5043135;28;20045;-66
2023/04/03 06:56:51;;;;;;;3.53;1.45;;;;;;;;;;5042276;28;20055;-65
2023/04/03 06:59:17;;;;;;;2.10;1.25;;;;;;;;;;5043417;28;20077;-66
2023/04/03 07:01:43;;;;;;;3.80;1.67;;;;;;;;;;5041703;28;20448;-64
2023/04/03 07:04:09;;;;;;;2.08;1.50;;;;;;;;;;5041921;28;20479;-65
2023/04/03 07:06:35;;;;;;;3.78;1.25;;;;;;;;;;5043164;28;20045;-65
2023/04/03 07:09:01;;;;;;;3.88;1.20;;;;;;;;;;5043099;28;20057;-65
2023/04/03 07:11:27;;;;;;;1.85;0.98;;;;;;;;;;5042473;28;20057;-65
2023/04/03 07:13:53;;;;;;;4.22;1.33;;;;;;;;;;5043839;28;20557;-65
2023/04/03 07:16:20;;;;;;;3.85;1.70;;;;;;;;;;5042912;28;20472;-65
2023/04/03 07:18:46;;;;;;;2.88;1.58;;;;;;;;;;5041255;28;20051;-65
2023/04/03 07:21:12;;;;;;;3.75;1.60;;;;;;;;;;5041467;28;20040;-65
2023/04/03 07:23:38;;;;;;;2.15;1.40;;;;;;;;;;5032516;28;20048;-65
2023/04/03 07:26:04;;;;;;;2.10;1.48;;;;;;;;;;5025696;28;20095;-65
2023/04/03 07:28:30;;;;;;;1.90;1.50;;;;;;;;;;5034005;28;20420;-65
2023/04/03 07:31:08;;;;;;;3.97;1.67;;;;;;;;;;5041611;28;20064;-65
2023/04/03 07:33:34;;;;;;;4.55;1.17;;;;;;;;;;5040981;28;20114;-65
2023/04/03 07:36:01;;;;;;;3.53;1.40;;;;;;;;;;5039693;28;20057;-65
2023/04/03 07:38:27;;;;;;;3.53;1.65;;;;;;;;;;5035159;28;20562;-67
2023/04/03 07:40:54;;;;;;;1.95;1.40;;;;;;;;;;5041408;28;20057;-65
2023/04/03 07:43:20;;;;;;;4.13;1.20;;;;;;;;;;5041314;28;20064;-64
2023/04/03 07:45:49;;;;;;;3.53;1.63;;;;;;;;;;5042143;28;20033;-67
2023/04/03 07:48:17;;;;;;;1.85;0.95;;;;;;;;;;5040555;28;20114;-64
2023/04/03 07:50:43;;;;;;;3.10;1.63;;;;;;;;;;5041797;28;20059;-66
2023/04/03 07:53:09;;;;;;;1.70;1.10;;;;;;;;;;5043321;28;20045;-66
2023/04/03 07:55:42;;;;;;;3.13;1.20;;;;;;;;;;5041808;28;20134;-67
2023/04/03 07:58:09;;;;;;;4.22;1.30;;;;;;;;;;5044032;28;20087;-67
2023/04/03 08:00:35;;;;;;;2.88;1.35;;;;;;;;;;5045167;28;20092;-67
2023/04/03 08:03:01;;;;;;;3.42;1.20;;;;;;;;;;5045065;28;20076;-67
2023/04/03 08:05:27;;;;;;;2.38;1.27;;;;;;;;;;5044948;28;20097;-66
2023/04/03 08:07:53;;;;;;;2.92;0.98;;;;;;;;;;5043779;28;20214;-66
2023/04/03 08:10:19;;;;;;;4.40;1.70;;;;;;;;;;5044343;28;20127;-64
2023/04/03 08:12:48;;;;;;;4.22;1.48;;;;;;;;;;5044886;28;20132;-65
2023/04/03 08:15:15;;;;;;;2.45;1.15;;;;;;;;;;5039198;28;20052;-65
2023/04/03 08:17:41;;;;;;;1.65;1.20;;;;;;;;;;5040360;28;20399;-66
2023/04/03 08:20:07;;;;;;;2.53;1.25;;;;;;;;;;5036777;28;20537;-65
2023/04/03 08:22:34;;;;;;;3.10;1.40;;;;;;;;;;5042531;28;20052;-65
2023/04/03 08:25:01;;;;;;;4.97;1.65;;;;;;;;;;5038975;28;20557;-65
2023/04/03 08:27:28;;;;;;;3.28;1.50;;;;;;;;;;5032992;28;20080;-65
2023/04/03 08:29:54;;;;;;;4.35;1.08;;;;;;;;;;5034246;28;20076;-66
2023/04/03 08:32:20;;;;;;;3.60;1.77;;;;;;;;;;5032361;28;20056;-66
2023/04/03 08:34:46;;;;;;;1.33;0.93;;;;;;;;;;5029623;28;20111;-65
2023/04/03 08:37:13;;;;;;;2.28;1.17;;;;;;;;;;5035087;28;20079;-66
2023/04/03 08:39:39;;;;;;;3.33;1.15;;;;;;;;;;5037002;28;20047;-66
2023/04/03 08:42:25;;;;;;;2.13;1.02;;;;;;;;;;5038638;28;20462;-66
2023/04/03 08:44:57;;;;;;;3.20;1.70;;;;;;;;;;5046011;28;20052;-64
2023/04/03 08:47:24;;;;;;;0.90;0.68;;;;;;;;;;5047488;28;20121;-65
2023/04/03 08:49:58;;;;;;;2.15;1.20;;;;;;;;;;5046879;28;20467;-64
2023/04/03 08:52:30;;;;;;;3.55;1.40;;;;;;;;;;5046860;28;20069;-66
2023/04/03 08:54:57;;;;;;;2.92;1.13;;;;;;;;;;5047410;28;20091;-66
2023/04/03 08:57:28;;;;;;;2.45;0.82;;;;;;;;;;5046596;28;20064;-66
2023/04/03 08:59:54;;;;;;;2.15;1.15;;;;;;;;;;5037374;28;20495;-66
2023/04/03 09:02:26;;;;;;;3.08;1.40;;;;;;;;;;5043302;28;20048;-66
2023/04/03 09:04:52;;;;;;;2.13;1.20;;;;;;;;;;5041317;28;20049;-66
2023/04/03 09:07:39;;;;;;;2.53;1.05;;;;;;;;;;5046373;28;20044;-66
2023/04/03 09:10:06;;;;;;;2.63;1.17;;;;;;;;;;5036683;28;20049;-66
2023/04/03 09:12:43;;;;;;;3.10;0.82;;;;;;;;;;5044603;28;20044;-66
2023/04/03 09:15:11;;;;;;;3.10;1.30;;;;;;;;;;5041053;28;20053;-66
2023/04/03 09:17:43;;;;;;;2.35;0.88;;;;;;;;;;5043134;28;20056;-66
2023/04/03 09:20:19;;;;;;;2.53;1.52;;;;;;;;;;5044698;28;20053;-66
2023/04/03 09:22:45;;;;;;;2.83;1.30;;;;;;;;;;5045516;28;20044;-66
2023/04/03 09:25:15;;;;;;;2.90;1.05;;;;;;;;;;5043876;28;20398;-66
2023/04/03 09:27:41;;;;;;;1.77;1.00;;;;;;;;;;5041370;28;20045;-65
2023/04/03 09:30:13;;;;;;;1.63;0.90;;;;;;;;;;5040700;28;20616;-66
2023/04/03 09:32:39;;;;;;;2.13;0.97;;;;;;;;;;5040505;28;20139;-66
2023/04/03 09:35:11;;;;;;;1.65;1.00;;;;;;;;;;5040636;28;20175;-66
2023/04/03 09:37:38;;;;;;;;;;;;;;;;;;5043103;28;20052;-66
2023/04/03 09:40:04;;;;;;;0.98;0.55;;;;;;;;;;5036478;28;19920;-67
2023/04/03 09:42:31;;;;;;;1.40;0.60;;;;;;;;;;5039404;28;20045;-66
2023/04/03 09:44:58;;;;;;;1.65;0.63;;;;;;;;;;5042927;28;20053;-68
2023/04/03 09:47:25;;;;;;;2.97;0.90;;;;;;;;;;5040886;28;20041;-67
2023/04/03 09:50:09;;;;;;;2.17;0.98;;;;;;;;;;5041327;28;20053;-67
2023/04/03 09:52:35;;;;;;;1.60;1.00;;;;;;;;;;5036246;28;20056;-67
2023/04/03 09:55:07;;;;;;;2.55;0.77;;;;;;;;;;5027282;28;20060;-68
2023/04/03 09:57:33;;;;;;;1.77;0.80;;;;;;;;;;5031823;28;20076;-68
2023/04/03 10:00:04;;;;;;;3.03;0.85;;;;;;;;;;5042627;28;20068;-68
2023/04/03 10:02:38;;;;;;;2.20;0.88;;;;;;;;;;5046273;28;20148;-66
2023/04/03 10:05:24;;;;;;;1.92;1.00;;;;;;;;;;5046753;28;20072;-67
2023/04/03 10:07:50;;;;;;;2.17;0.75;;;;;;;;;;5045099;28;20207;-67
2023/04/03 10:10:19;;;;;;;2.17;0.98;;;;;;;;;;5045735;28;20072;-67
2023/04/03 10:12:45;;;;;;;0.60;0.40;;;;;;;;;;5045410;28;20044;-67
2023/04/03 10:15:16;;;;;;;0.90;0.63;;;;;;;;;;5043463;28;20049;-67
2023/04/03 10:17:48;;;;;;;1.85;0.68;;;;;;;;;;5044492;28;20044;-67
2023/04/03 10:20:31;;;;;;;1.52;1.10;;;;;;;;;;5044480;28;20163;-66
2023/04/03 10:22:57;;;;;;;;;;;;;;;;;;5033127;28;20507;-66
2023/04/03 10:25:30;;;;;;;0.63;0.40;;;;;;;;;;5025654;28;20000;-66
2023/04/03 10:28:00;;;;;;;1.38;0.50;;;;;;;;;;5024548;28;20515;-66
2023/04/03 10:30:26;;;;;;;1.58;0.60;;;;;;;;;;5025032;28;20061;-66
2023/04/03 10:33:18;;;;;;;1.95;0.88;;;;;;;;;;5024821;28;20494;-66
2023/04/03 10:35:46;;;;;;;;;;;;;;;;;;5025778;28;20424;-66
2023/04/03 10:38:11;;;;;;;1.95;0.82;;;;;;;;;;5026555;28;20417;-66
2023/04/03 10:40:49;;;;;;;1.40;0.60;;;;;;;;;;5041676;28;20061;-67
2023/04/03 10:43:22;;;;;;;1.73;0.60;;;;;;;;;;5046026;28;20490;-67
2023/04/03 10:45:48;;;;;;;0.88;0.70;;;;;;;;;;5046057;28;20801;-67
2023/04/03 10:48:14;;;;;;;0.47;0.38;;;;;;;;;;5043802;28;20033;-67
2023/04/03 10:50:52;;;;;;;1.48;0.60;;;;;;;;;;5046803;28;20488;-67
2023/04/03 10:53:37;;;;;;;0.47;0.47;;;;;;;;;;5044270;28;20047;-66
2023/04/03 10:56:13;;;;;;;0.55;0.50;;;;;;;;;;5038894;28;20132;-66
2023/04/03 10:58:43;;;;;;;1.40;0.60;;;;;;;;;;5032746;28;20056;-66
2023/04/03 11:01:12;;;;;;;2.20;0.60;;;;;;;;;;5030829;28;20739;-67
2023/04/03 11:03:44;;;;;;;1.00;0.65;;;;;;;;;;5035164;28;20049;-66
2023/04/03 11:06:11;;;;;;;0.60;0.50;;;;;;;;;;5045392;28;20045;-67
2023/04/03 11:08:54;;;;;;;0.30;0.20;;;;;;;;;;5045261;28;20061;-66
2023/04/03 11:11:41;;;;;;;0.98;0.40;;;;;;;;;;5045549;28;20048;-67
2023/04/03 11:14:16;;;;;;;1.63;0.63;;;;;;;;;;5044732;28;20750;-67
2023/04/03 11:16:44;;;;;;;1.00;0.40;;;;;;;;;;5045604;28;20041;-66
2023/04/03 11:19:13;;;;;;;1.38;0.57;;;;;;;;;;5039050;28;20055;-66
2023/04/03 11:21:45;;;;;;;0.68;0.43;;;;;;;;;;5035397;28;20041;-66
2023/04/03 11:24:22;;;;;;;1.40;0.70;;;;;;;;;;5035214;28;20037;-66
2023/04/03 11:26:49;;;;;;;0.45;0.35;;;;;;;;;;5038332;28;20072;-66
2023/04/03 11:29:19;;;;;;;1.58;0.60;;;;;;;;;;5037582;28;20055;-66
2023/04/03 11:32:00;;;;;;;0.98;0.57;;;;;;;;;;5039786;28;20049;-65
2023/04/03 11:34:38;;;;;;;1.80;0.57;;;;;;;;;;5037747;28;20049;-66
2023/04/03 11:37:06;;;;;;;1.50;0.60;;;;;;;;;;5041376;28;20060;-67
2023/04/03 11:39:34;;;;;;;1.25;0.45;;;;;;;;;;5025455;28;20136;-67
2023/04/03 11:42:19;;;;;;;1.98;0.82;;;;;;;;;;5037012;28;20044;-67
2023/04/03 11:44:45;;;;;;;0.77;0.45;;;;;;;;;;5035523;28;20531;-66
2023/04/03 11:47:12;;;;;;;1.55;0.60;;;;;;;;;;5032676;28;20061;-67
2023/04/03 11:49:52;;;;;;;0.93;0.57;;;;;;;;;;5029866;28;20055;-67
2023/04/03 11:52:48;;;;;;;2.00;0.43;;;;;;;;;;5041127;28;20944;-66
2023/04/03 11:55:23;;;;;;;0.63;0.40;;;;;;;;;;5042519;28;20055;-65
2023/04/03 11:57:54;;;;;;;1.38;0.40;;;;;;;;;;5037551;28;20052;-65
2023/04/03 12:00:40;;;;;;;1.10;0.40;;;;;;;;;;5038532;28;20059;-65
2023/04/03 12:03:29;;;;;;;2.70;0.70;;;;;;;;;;5036944;28;20518;-65
2023/04/03 12:05:59;;;;;;;3.67;0.40;;;;;;;;;;5031878;28;20041;-66
2023/04/03 12:08:46;;;;;;;1.67;0.57;;;;;;;;;;5031602;28;20053;-66
2023/04/03 12:11:12;;;;;;;0.85;0.50;;;;;;;;;;5038084;28;20068;-66
2023/04/03 12:13:58;;;;;;;0.73;0.60;;;;;;;;;;5034102;28;20315;-65
2023/04/03 12:16:40;;;;;;;1.70;0.70;;;;;;;;;;5027889;28;20131;-67
2023/04/03 12:19:16;;;;;;;0.77;0.50;;;;;;;;;;5035317;28;20072;-66
2023/04/03 12:21:48;;;;;;;1.77;0.50;;;;;;;;;;5034331;28;20089;-66
2023/04/03 12:24:17;;;;;;;1.70;1.00;;;;;;;;;;5025167;28;20112;-66
2023/04/03 12:27:02;;;;;;;3.08;0.63;;;;;;;;;;5023045;28;20072;-66
2023/04/03 12:29:28;;;;;;;1.08;0.63;;;;;;;;;;5023981;28;20381;-66
2023/04/03 12:31:54;;;;;;;0.82;0.50;;;;;;;;;;5021757;28;20092;-66
2023/04/03 12:34:39;;;;;;;1.27;0.63;;;;;;;;;;5021497;28;20534;-66
2023/04/03 12:37:15;;;;;;;2.35;0.70;;;;;;;;;;5022386;28;20289;-66
2023/04/03 12:39:50;;;;;;;2.15;0.85;;;;;;;;;;5021582;28;20084;-66
2023/04/03 12:42:45;;;;;;;0.98;0.65;;;;;;;;;;5021620;28;20415;-66
2023/04/03 12:45:21;;;;;;;0.85;0.55;;;;;;;;;;4952737;28;20089;-67
2023/04/03 12:47:49;;;;;;;1.00;0.50;;;;;;;;;;5022983;28;20144;-66
2023/04/03 12:50:24;;;;;;;1.00;0.77;;;;;;;;;;5023020;28;20556;-66
2023/04/03 12:52:59;;;;;;;2.33;0.70;;;;;;;;;;5022136;28;20492;-66
2023/04/03 12:55:26;;;;;;;1.35;0.55;;;;;;;;;;5024092;28;20080;-66
2023/04/03 12:57:52;;;;;;;1.75;0.75;;;;;;;;;;5024694;28;20058;-66
2023/04/03 13:00:19;;;;;;;1.10;0.30;;;;;;;;;;5023613;28;20037;-66
2023/04/03 13:02:46;;;;;;;0.90;0.47;;;;;;;;;;5024405;28;20062;-66
2023/04/03 13:05:16;;;;;;;1.98;0.50;;;;;;;;;;5022978;28;20049;-66
2023/04/03 13:07:43;;;;;;;2.65;0.70;;;;;;;;;;5025049;28;20057;-66
2023/04/03 13:10:09;;;;;;;1.83;0.60;;;;;;;;;;5022759;28;20045;-68
2023/04/03 13:12:55;;;;;;;1.23;0.60;;;;;;;;;;5024835;28;20446;-66
2023/04/03 13:15:29;;;;;;;0.75;0.70;;;;;;;;;;5023306;28;20049;-66
2023/04/03 13:17:56;;;;;;;0.70;0.50;;;;;;;;;;5022594;28;20140;-66
2023/04/03 13:20:33;;;;;;;2.25;0.70;;;;;;;;;;5023303;28;20086;-66
2023/04/03 13:23:03;;;;;;;1.17;0.40;;;;;;;;;;5022391;28;20050;-66
2023/04/03 13:25:31;;;;;;;1.25;0.63;;;;;;;;;;5023212;28;20056;-66
2023/04/03 13:27:58;;;;;;;2.50;0.73;;;;;;;;;;5023939;28;20495;-66
2023/04/03 13:30:29;;;;;;;1.63;0.60;;;;;;;;;;5027407;28;20057;-66
2023/04/03 13:32:57;;;;;;;1.75;0.70;;;;;;;;;;5027462;28;20088;-66
2023/04/03 13:35:28;;;;;;;0.63;0.50;;;;;;;;;;5028256;28;20396;-66
2023/04/03 13:37:55;;;;;;;1.25;0.50;;;;;;;;;;5025965;28;20053;-66
2023/04/03 13:40:22;;;;;;;0.40;0.40;;;;;;;;;;5027996;28;20514;-68
2023/04/03 13:42:58;;;;;;;2.15;0.60;;;;;;;;;;5044730;28;20049;-66
2023/04/03 13:45:28;;;;;;;1.00;0.63;;;;;;;;;;5046777;28;20033;-66
2023/04/03 13:48:07;;;;;;;0.77;0.57;;;;;;;;;;5032093;28;20407;-66
2023/04/03 13:50:33;;;;;;;0.75;0.40;;;;;;;;;;5046614;28;20075;-65
2023/04/03 13:53:12;;;;;;;1.77;0.57;;;;;;;;;;5046363;28;20056;-65
2023/04/03 13:55:55;;;;;;;1.60;0.82;;;;;;;;;;5048197;28;20053;-65
2023/04/03 13:58:21;;;;;;;;;;;;;;;;;;5046280;28;20158;-66
2023/04/03 14:00:50;;;;;;;1.95;0.70;;;;;;;;;;5047020;28;20004;-63
2023/04/03 14:03:31;;;;;;;2.28;1.00;;;;;;;;;;5047523;28;20056;-68
2023/04/03 14:05:57;;;;;;;1.00;0.68;;;;;;;;;;5046431;28;20659;-67
2023/04/03 14:08:23;;;;;;;1.02;0.93;;;;;;;;;;5045857;28;20045;-67
2023/04/03 14:10:50;;;;;;;2.63;0.68;;;;;;;;;;5045978;28;20045;-67
2023/04/03 14:13:17;;;;;;;1.08;0.80;;;;;;;;;;5045258;28;20064;-67
2023/04/03 14:15:44;;;;;;;1.65;0.75;;;;;;;;;;5046067;28;20049;-67
2023/04/03 14:18:12;;;;;;;0.90;0.63;;;;;;;;;;5047538;28;20052;-67
2023/04/03 14:20:38;;;;;;;2.28;0.70;;;;;;;;;;5046288;28;20056;-67
2023/04/03 14:23:04;;;;;;;1.55;0.80;;;;;;;;;;5045721;28;20124;-67
2023/04/03 14:25:30;;;;;;;2.45;1.10;;;;;;;;;;5047258;28;20192;-67
2023/04/03 14:27:57;;;;;;;2.03;0.80;;;;;;;;;;5045990;28;20076;-67
2023/04/03 14:30:23;;;;;;;1.92;0.95;;;;;;;;;;5045349;28;20056;-67
2023/04/03 14:32:50;;;;;;;3.00;0.80;;;;;;;;;;5045417;28;20049;-67
2023/04/03 14:35:16;;;;;;;0.80;0.80;;;;;;;;;;5045186;28;20052;-67
2023/04/03 14:37:43;;;;;;;2.95;1.00;;;;;;;;;;5046986;28;20044;-67
2023/04/03 14:40:13;;;;;;;2.97;1.05;;;;;;;;;;5045196;28;20128;-67
2023/04/03 14:42:39;;;;;;;1.60;0.75;;;;;;;;;;5047439;28;20045;-67
2023/04/03 14:45:07;;;;;;;3.35;0.80;;;;;;;;;;5045119;28;20387;-67
2023/04/03 14:47:34;;;;;;;1.65;0.85;;;;;;;;;;5045110;28;20048;-67
2023/04/03 14:50:01;;;;;;;1.27;0.60;;;;;;;;;;5045321;28;20041;-67
2023/04/03 14:52:29;;;;;;;0.88;0.50;;;;;;;;;;5046812;28;20138;-67